Le Ponant — FGZZ — position and weather

sailwx.info

Track history (hours):
 
Tides and Currents Weather Stations Pressure Air Temp Water Temp Dewpoint Dewpoint Depression Visibility Wind Speed Wind Dir Waves Ship Positions

Le Ponant

Operator: Compangy des Iles du Ponant

Last reported at 2014-Aug-30 23:20 UTC. Time now 2014-Sep-01 20:54 UTC.
Position N 36°13' E 014°49'.

Length 84 m; draft 4.2 m.

Type: Passenger vessel. MMSI: 227186000.

Date/timePositionNaut miles runAvg speedWind from/ knotsBaromVisibWave heightAir tempDewpointWater temp
2014-Aug-30 23:20N 36°13' E 014°49'810.4
2014-Aug-30 22:33N 36°07' E 014°43'  
2014-Aug-28 12:25N 38°38' E 015°08'49 3.5
2014-Aug-27 22:29N 39°24' E 014°49'7410.4
2014-Aug-27 15:23N 40°37' E 014°33'  
2014-Aug-24 03:19N 43°10' E 009°53'7 9.6
2014-Aug-24 02:33N 43°12' E 009°43'10 9.9
2014-Aug-24 01:31N 43°15' E 009°30'1111.3
2014-Aug-24 00:32N 43°18' E 009°15'1111.4
2014-Aug-23 23:33N 43°21' E 009°00'1211.6
2014-Aug-23 22:33N 43°23' E 008°45'1110.9
2014-Aug-23 21:34N 43°26' E 008°30'1110.9
2014-Aug-23 20:33N 43°29' E 008°16'43 2.5
2014-Aug-23 03:31N 43°39' E 007°18'6011.1
2014-Aug-22 22:04N 43°53' E 008°39'712.3
2014-Aug-22 21:33N 43°54' E 008°48'1212.1
2014-Aug-22 20:33N 43°57' E 009°04'1211.7
2014-Aug-22 19:33N 43°57' E 009°20'1111.4
2014-Aug-22 18:33N 43°59' E 009°36'9 8.9
2014-Aug-22 17:33N 44°01' E 009°48'3 3.3
2014-Aug-22 16:33N 44°03' E 009°51'0 0.1
2014-Aug-22 15:31N 44°03' E 009°51'0 0.0
2014-Aug-22 14:31N 44°03' E 009°51'0 0.0
2014-Aug-22 13:31N 44°03' E 009°51'0 0.0
2014-Aug-22 12:31N 44°03' E 009°51'0 0.0
2014-Aug-22 11:31N 44°03' E 009°51'0 0.0
2014-Aug-22 10:31N 44°03' E 009°51'0 0.0
2014-Aug-22 09:31N 44°03' E 009°51'0 0.0
2014-Aug-22 08:31N 44°03' E 009°51'0 0.0
2014-Aug-22 07:31N 44°03' E 009°51'0 0.0
2014-Aug-22 06:31N 44°03' E 009°51'0 0.0
2014-Aug-22 05:31N 44°03' E 009°51'2 1.9
2014-Aug-22 04:33N 44°04' E 009°53'1 0.7
2014-Aug-22 03:33N 44°04' E 009°54'0 0.0
2014-Aug-22 02:33N 44°04' E 009°54'0 0.0
2014-Aug-22 01:33N 44°04' E 009°54'0 0.0
2014-Aug-22 00:33N 44°04' E 009°54'0 0.0
2014-Aug-21 23:33N 44°04' E 009°54'0 0.0
2014-Aug-21 22:33N 44°04' E 009°54'0 0.0
2014-Aug-21 21:33N 44°04' E 009°54'0 0.0
2014-Aug-21 20:33N 44°04' E 009°54'0 0.0
2014-Aug-21 19:33N 44°04' E 009°54'0 0.0
2014-Aug-21 18:33N 44°04' E 009°54'0 0.0
2014-Aug-21 17:33N 44°04' E 009°54'0 0.0
2014-Aug-21 16:33N 44°04' E 009°54'0 0.0
2014-Aug-21 15:30N 44°04' E 009°54'0 0.0
2014-Aug-21 14:33N 44°04' E 009°54'0 0.0
2014-Aug-21 13:33N 44°04' E 009°54'0 0.0
2014-Aug-21 12:33N 44°04' E 009°54'0 0.0
2014-Aug-21 11:33N 44°04' E 009°54'0 0.0
2014-Aug-21 10:33N 44°04' E 009°54'0 0.0
2014-Aug-21 09:30N 44°04' E 009°54'0 0.0
2014-Aug-21 08:33N 44°04' E 009°54'0 0.0
2014-Aug-21 07:30N 44°04' E 009°54'0 0.0
2014-Aug-21 06:33N 44°04' E 009°54'3 3.0
2014-Aug-21 05:33N 44°02' E 009°57'6 5.5
2014-Aug-21 04:33N 43°57' E 009°59'6 6.3
2014-Aug-21 03:33N 43°52' E 009°54'4 4.1
2014-Aug-21 02:33N 43°49' E 009°50'4 4.4
2014-Aug-21 01:33N 43°45' E 009°49'6 5.6
2014-Aug-21 00:33N 43°39' E 009°47'7 7.2
2014-Aug-20 23:33N 43°32' E 009°44'  
Track history (hours):
 
Tides and Currents Weather Stations Pressure Air Temp Water Temp Dewpoint Dewpoint Depression Visibility Wind Speed Wind Dir Waves Ship Positions

Le Ponant

Operator: Compangy des Iles du Ponant

Last reported at 2014-Aug-30 23:20 UTC. Time now 2014-Sep-01 20:54 UTC.
Position N 36°13' E 014°49'.

Length 84 m; draft 4.2 m.

Type: Passenger vessel. MMSI: 227186000.

Date/timePositionNaut miles runAvg speedWind from/ knotsBaromVisibWave heightAir tempDewpointWater temp
2014-Aug-30 23:20N 36°13' E 014°49'810.4
2014-Aug-30 22:33N 36°07' E 014°43'  
2014-Aug-28 12:25N 38°38' E 015°08'49 3.5
2014-Aug-27 22:29N 39°24' E 014°49'7410.4
2014-Aug-27 15:23N 40°37' E 014°33'  
2014-Aug-24 03:19N 43°10' E 009°53'7 9.6
2014-Aug-24 02:33N 43°12' E 009°43'10 9.9
2014-Aug-24 01:31N 43°15' E 009°30'1111.3
2014-Aug-24 00:32N 43°18' E 009°15'1111.4
2014-Aug-23 23:33N 43°21' E 009°00'1211.6
2014-Aug-23 22:33N 43°23' E 008°45'1110.9
2014-Aug-23 21:34N 43°26' E 008°30'1110.9
2014-Aug-23 20:33N 43°29' E 008°16'43 2.5
2014-Aug-23 03:31N 43°39' E 007°18'6011.1
2014-Aug-22 22:04N 43°53' E 008°39'712.3
2014-Aug-22 21:33N 43°54' E 008°48'1212.1
2014-Aug-22 20:33N 43°57' E 009°04'1211.7
2014-Aug-22 19:33N 43°57' E 009°20'1111.4
2014-Aug-22 18:33N 43°59' E 009°36'9 8.9
2014-Aug-22 17:33N 44°01' E 009°48'3 3.3
2014-Aug-22 16:33N 44°03' E 009°51'0 0.1
2014-Aug-22 15:31N 44°03' E 009°51'0 0.0
2014-Aug-22 14:31N 44°03' E 009°51'0 0.0
2014-Aug-22 13:31N 44°03' E 009°51'0 0.0
2014-Aug-22 12:31N 44°03' E 009°51'0 0.0
2014-Aug-22 11:31N 44°03' E 009°51'0 0.0
2014-Aug-22 10:31N 44°03' E 009°51'0 0.0
2014-Aug-22 09:31N 44°03' E 009°51'0 0.0
2014-Aug-22 08:31N 44°03' E 009°51'0 0.0
2014-Aug-22 07:31N 44°03' E 009°51'0 0.0
2014-Aug-22 06:31N 44°03' E 009°51'0 0.0
2014-Aug-22 05:31N 44°03' E 009°51'2 1.9
2014-Aug-22 04:33N 44°04' E 009°53'1 0.7
2014-Aug-22 03:33N 44°04' E 009°54'0 0.0
2014-Aug-22 02:33N 44°04' E 009°54'0 0.0
2014-Aug-22 01:33N 44°04' E 009°54'0 0.0
2014-Aug-22 00:33N 44°04' E 009°54'0 0.0
2014-Aug-21 23:33N 44°04' E 009°54'0 0.0
2014-Aug-21 22:33N 44°04' E 009°54'0 0.0
2014-Aug-21 21:33N 44°04' E 009°54'0 0.0
2014-Aug-21 20:33N 44°04' E 009°54'0 0.0
2014-Aug-21 19:33N 44°04' E 009°54'0 0.0
2014-Aug-21 18:33N 44°04' E 009°54'0 0.0
2014-Aug-21 17:33N 44°04' E 009°54'0 0.0
2014-Aug-21 16:33N 44°04' E 009°54'0 0.0
2014-Aug-21 15:30N 44°04' E 009°54'0 0.0
2014-Aug-21 14:33N 44°04' E 009°54'0 0.0
2014-Aug-21 13:33N 44°04' E 009°54'0 0.0
2014-Aug-21 12:33N 44°04' E 009°54'0 0.0
2014-Aug-21 11:33N 44°04' E 009°54'0 0.0
2014-Aug-21 10:33N 44°04' E 009°54'0 0.0
2014-Aug-21 09:30N 44°04' E 009°54'0 0.0
2014-Aug-21 08:33N 44°04' E 009°54'0 0.0
2014-Aug-21 07:30N 44°04' E 009°54'0 0.0
2014-Aug-21 06:33N 44°04' E 009°54'3 3.0
2014-Aug-21 05:33N 44°02' E 009°57'6 5.5
2014-Aug-21 04:33N 43°57' E 009°59'6 6.3
2014-Aug-21 03:33N 43°52' E 009°54'4 4.1
2014-Aug-21 02:33N 43°49' E 009°50'4 4.4
2014-Aug-21 01:33N 43°45' E 009°49'6 5.6
2014-Aug-21 00:33N 43°39' E 009°47'7 7.2
2014-Aug-20 23:33N 43°32' E 009°44'  

Dump ship's entire track history